sensor_id;sensor_type;location;lat;lon;timestamp;P1;durP1;ratioP1;P2;durP2;ratioP2
6561;SDS011;3314;50.890;4.722;2023-02-15T00:01:04;40.5;;;16.7;;
6561;SDS011;3314;50.890;4.722;2023-02-15T00:02:52;35.8;;;16.7;;
6561;SDS011;3314;50.890;4.722;2023-02-15T00:04:51;42.7;;;17.5;;
6561;SDS011;3314;50.890;4.722;2023-02-15T00:06:51;40.7;;;17.6;;
6561;SDS011;3314;50.890;4.722;2023-02-15T00:08:51;37.9;;;16.3;;
6561;SDS011;3314;50.890;4.722;2023-02-15T00:10:50;39.3;;;16.3;;
6561;SDS011;3314;50.890;4.722;2023-02-15T00:12:50;34.9;;;16.8;;
6561;SDS011;3314;50.890;4.722;2023-02-15T00:14:50;35.2;;;16.0;;
6561;SDS011;3314;50.890;4.722;2023-02-15T00:16:50;36.5;;;15.9;;
6561;SDS011;3314;50.890;4.722;2023-02-15T00:18:51;38.5;;;17.4;;
6561;SDS011;3314;50.890;4.722;2023-02-15T00:20:51;38.8;;;15.9;;
6561;SDS011;3314;50.890;4.722;2023-02-15T00:22:50;35.6;;;14.9;;
6561;SDS011;3314;50.890;4.722;2023-02-15T00:24:50;36.1;;;15.6;;
6561;SDS011;3314;50.890;4.722;2023-02-15T00:26:50;40.8;;;16.6;;
6561;SDS011;3314;50.890;4.722;2023-02-15T00:28:50;35.1;;;15.7;;
6561;SDS011;3314;50.890;4.722;2023-02-15T00:30:49;37.2;;;15.9;;
6561;SDS011;3314;50.890;4.722;2023-02-15T00:32:49;41.1;;;16.2;;
6561;SDS011;3314;50.890;4.722;2023-02-15T00:34:48;39.2;;;16.5;;
6561;SDS011;3314;50.890;4.722;2023-02-15T00:36:48;36.3;;;15.9;;
6561;SDS011;3314;50.890;4.722;2023-02-15T00:38:48;38.6;;;16.9;;
6561;SDS011;3314;50.890;4.722;2023-02-15T00:40:51;39.4;;;15.9;;
6561;SDS011;3314;50.890;4.722;2023-02-15T00:42:51;36.2;;;15.6;;
6561;SDS011;3314;50.890;4.722;2023-02-15T00:44:50;37.7;;;16.6;;
6561;SDS011;3314;50.890;4.722;2023-02-15T00:46:50;33.7;;;14.5;;
6561;SDS011;3314;50.890;4.722;2023-02-15T00:48:50;36.8;;;15.2;;
6561;SDS011;3314;50.890;4.722;2023-02-15T00:50:50;33.0;;;15.1;;
6561;SDS011;3314;50.890;4.722;2023-02-15T00:52:50;36.3;;;14.7;;
6561;SDS011;3314;50.890;4.722;2023-02-15T00:54:49;40.5;;;16.1;;
6561;SDS011;3314;50.890;4.722;2023-02-15T00:56:49;41.5;;;17.5;;
6561;SDS011;3314;50.890;4.722;2023-02-15T00:58:49;33.2;;;15.2;;
6561;SDS011;3314;50.890;4.722;2023-02-15T01:00:48;35.7;;;16.3;;
6561;SDS011;3314;50.890;4.722;2023-02-15T01:02:48;36.1;;;16.2;;
6561;SDS011;3314;50.890;4.722;2023-02-15T01:04:38;38.4;;;15.8;;
6561;SDS011;3314;50.890;4.722;2023-02-15T01:06:37;38.4;;;15.6;;
6561;SDS011;3314;50.890;4.722;2023-02-15T01:08:37;35.0;;;15.7;;
6561;SDS011;3314;50.890;4.722;2023-02-15T01:10:37;38.3;;;16.6;;
6561;SDS011;3314;50.890;4.722;2023-02-15T01:12:37;36.9;;;15.8;;
6561;SDS011;3314;50.890;4.722;2023-02-15T01:14:37;41.3;;;15.9;;
6561;SDS011;3314;50.890;4.722;2023-02-15T01:16:36;38.4;;;16.0;;
6561;SDS011;3314;50.890;4.722;2023-02-15T01:18:36;38.9;;;15.5;;
6561;SDS011;3314;50.890;4.722;2023-02-15T01:20:38;35.1;;;14.5;;
6561;SDS011;3314;50.890;4.722;2023-02-15T01:22:37;36.9;;;15.9;;
6561;SDS011;3314;50.890;4.722;2023-02-15T01:24:37;36.1;;;15.1;;
6561;SDS011;3314;50.890;4.722;2023-02-15T01:26:37;40.8;;;17.0;;
6561;SDS011;3314;50.890;4.722;2023-02-15T01:28:37;41.6;;;16.8;;
6561;SDS011;3314;50.890;4.722;2023-02-15T01:30:36;42.2;;;17.2;;
6561;SDS011;3314;50.890;4.722;2023-02-15T01:32:36;41.9;;;17.8;;
6561;SDS011;3314;50.890;4.722;2023-02-15T01:34:36;35.4;;;16.6;;
6561;SDS011;3314;50.890;4.722;2023-02-15T01:36:36;42.4;;;17.2;;
6561;SDS011;3314;50.890;4.722;2023-02-15T01:38:36;43.3;;;17.2;;
6561;SDS011;3314;50.890;4.722;2023-02-15T01:40:35;40.4;;;15.2;;
6561;SDS011;3314;50.890;4.722;2023-02-15T01:42:35;48.1;;;17.8;;
6561;SDS011;3314;50.890;4.722;2023-02-15T01:44:51;39.3;;;15.3;;
6561;SDS011;3314;50.890;4.722;2023-02-15T01:46:30;39.3;;;16.3;;
6561;SDS011;3314;50.890;4.722;2023-02-15T01:48:33;43.1;;;16.2;;
6561;SDS011;3314;50.890;4.722;2023-02-15T01:50:33;45.1;;;17.2;;
6561;SDS011;3314;50.890;4.722;2023-02-15T01:52:34;41.2;;;17.3;;
6561;SDS011;3314;50.890;4.722;2023-02-15T01:54:36;37.1;;;17.2;;
6561;SDS011;3314;50.890;4.722;2023-02-15T01:56:27;40.0;;;17.0;;
6561;SDS011;3314;50.890;4.722;2023-02-15T01:58:29;39.1;;;15.9;;
6561;SDS011;3314;50.890;4.722;2023-02-15T02:00:29;39.6;;;16.6;;
6561;SDS011;3314;50.890;4.722;2023-02-15T02:02:29;41.4;;;16.8;;
6561;SDS011;3314;50.890;4.722;2023-02-15T02:04:29;38.1;;;16.2;;
6561;SDS011;3314;50.890;4.722;2023-02-15T02:06:30;43.6;;;16.9;;
6561;SDS011;3314;50.890;4.722;2023-02-15T02:08:31;43.8;;;17.4;;
6561;SDS011;3314;50.890;4.722;2023-02-15T02:10:31;38.3;;;15.5;;
6561;SDS011;3314;50.890;4.722;2023-02-15T02:12:31;36.3;;;15.5;;
6561;SDS011;3314;50.890;4.722;2023-02-15T02:14:31;37.2;;;16.9;;
6561;SDS011;3314;50.890;4.722;2023-02-15T02:16:33;39.5;;;15.8;;
6561;SDS011;3314;50.890;4.722;2023-02-15T02:18:26;40.6;;;15.9;;
6561;SDS011;3314;50.890;4.722;2023-02-15T02:20:30;41.0;;;15.5;;
6561;SDS011;3314;50.890;4.722;2023-02-15T02:22:25;38.9;;;16.5;;
6561;SDS011;3314;50.890;4.722;2023-02-15T02:24:34;42.3;;;15.7;;
6561;SDS011;3314;50.890;4.722;2023-02-15T02:27:32;36.9;;;14.8;;
6561;SDS011;3314;50.890;4.722;2023-02-15T02:28:41;36.8;;;15.7;;
6561;SDS011;3314;50.890;4.722;2023-02-15T02:30:30;37.1;;;15.6;;
6561;SDS011;3314;50.890;4.722;2023-02-15T02:32:33;38.3;;;16.2;;
6561;SDS011;3314;50.890;4.722;2023-02-15T02:34:25;40.1;;;16.0;;
6561;SDS011;3314;50.890;4.722;2023-02-15T02:36:29;38.5;;;15.0;;
6561;SDS011;3314;50.890;4.722;2023-02-15T02:38:20;38.7;;;15.0;;
6561;SDS011;3314;50.890;4.722;2023-02-15T02:40:25;39.9;;;16.0;;
6561;SDS011;3314;50.890;4.722;2023-02-15T02:42:26;38.0;;;15.3;;
6561;SDS011;3314;50.890;4.722;2023-02-15T02:44:18;35.9;;;15.0;;
6561;SDS011;3314;50.890;4.722;2023-02-15T02:46:20;36.6;;;15.7;;
6561;SDS011;3314;50.890;4.722;2023-02-15T02:48:22;37.6;;;15.9;;
6561;SDS011;3314;50.890;4.722;2023-02-15T02:50:25;35.1;;;15.1;;
6561;SDS011;3314;50.890;4.722;2023-02-15T02:52:46;37.8;;;16.0;;
6561;SDS011;3314;50.890;4.722;2023-02-15T02:54:22;35.4;;;15.7;;
6561;SDS011;3314;50.890;4.722;2023-02-15T02:56:23;38.2;;;15.8;;
6561;SDS011;3314;50.890;4.722;2023-02-15T02:58:14;34.3;;;15.5;;
6561;SDS011;3314;50.890;4.722;2023-02-15T03:00:16;42.8;;;16.2;;
6561;SDS011;3314;50.890;4.722;2023-02-15T03:02:17;38.3;;;17.2;;
6561;SDS011;3314;50.890;4.722;2023-02-15T03:04:20;36.9;;;15.0;;
6561;SDS011;3314;50.890;4.722;2023-02-15T03:06:11;34.2;;;15.0;;
6561;SDS011;3314;50.890;4.722;2023-02-15T03:08:12;37.1;;;15.5;;
6561;SDS011;3314;50.890;4.722;2023-02-15T03:10:13;37.2;;;16.5;;
6561;SDS011;3314;50.890;4.722;2023-02-15T03:12:14;43.4;;;17.6;;
6561;SDS011;3314;50.890;4.722;2023-02-15T03:14:16;41.7;;;16.1;;
6561;SDS011;3314;50.890;4.722;2023-02-15T03:16:31;34.7;;;14.7;;
6561;SDS011;3314;50.890;4.722;2023-02-15T03:18:08;39.1;;;16.1;;
6561;SDS011;3314;50.890;4.722;2023-02-15T03:20:09;38.5;;;16.1;;
6561;SDS011;3314;50.890;4.722;2023-02-15T03:22:11;33.8;;;14.2;;
6561;SDS011;3314;50.890;4.722;2023-02-15T03:24:12;34.8;;;14.3;;
6561;SDS011;3314;50.890;4.722;2023-02-15T03:26:13;36.5;;;14.3;;
6561;SDS011;3314;50.890;4.722;2023-02-15T03:28:13;36.6;;;15.4;;
6561;SDS011;3314;50.890;4.722;2023-02-15T03:30:29;41.6;;;15.7;;
6561;SDS011;3314;50.890;4.722;2023-02-15T03:32:07;35.3;;;15.8;;
6561;SDS011;3314;50.890;4.722;2023-02-15T03:34:08;40.2;;;14.8;;
6561;SDS011;3314;50.890;4.722;2023-02-15T03:36:11;37.4;;;16.3;;
6561;SDS011;3314;50.890;4.722;2023-02-15T03:38:11;37.1;;;16.0;;
6561;SDS011;3314;50.890;4.722;2023-02-15T03:41:15;39.7;;;15.8;;
6561;SDS011;3314;50.890;4.722;2023-02-15T03:42:07;38.3;;;15.9;;
6561;SDS011;3314;50.890;4.722;2023-02-15T03:44:11;41.2;;;16.1;;
6561;SDS011;3314;50.890;4.722;2023-02-15T03:46:03;35.8;;;15.7;;
6561;SDS011;3314;50.890;4.722;2023-02-15T03:48:05;39.7;;;15.9;;
6561;SDS011;3314;50.890;4.722;2023-02-15T03:51:34;38.5;;;15.4;;
6561;SDS011;3314;50.890;4.722;2023-02-15T03:52:00;37.1;;;15.8;;
6561;SDS011;3314;50.890;4.722;2023-02-15T03:54:02;39.8;;;15.6;;
6561;SDS011;3314;50.890;4.722;2023-02-15T03:56:02;37.3;;;15.0;;
6561;SDS011;3314;50.890;4.722;2023-02-15T04:00:11;36.0;;;16.4;;
6561;SDS011;3314;50.890;4.722;2023-02-15T04:02:30;35.5;;;16.3;;
6561;SDS011;3314;50.890;4.722;2023-02-15T04:02:51;47.6;;;17.0;;
6561;SDS011;3314;50.890;4.722;2023-02-15T04:04:06;35.1;;;16.0;;
6561;SDS011;3314;50.890;4.722;2023-02-15T04:05:56;43.0;;;17.1;;
6561;SDS011;3314;50.890;4.722;2023-02-15T04:07:56;40.4;;;17.0;;
6561;SDS011;3314;50.890;4.722;2023-02-15T04:10:59;43.8;;;17.9;;
6561;SDS011;3314;50.890;4.722;2023-02-15T04:11:58;38.9;;;16.6;;
6561;SDS011;3314;50.890;4.722;2023-02-15T04:13:58;41.1;;;17.1;;
6561;SDS011;3314;50.890;4.722;2023-02-15T04:16:05;41.9;;;16.8;;
6561;SDS011;3314;50.890;4.722;2023-02-15T04:17:54;45.6;;;16.9;;
6561;SDS011;3314;50.890;4.722;2023-02-15T04:22:00;39.0;;;16.8;;
6561;SDS011;3314;50.890;4.722;2023-02-15T04:24:18;38.8;;;17.2;;
6561;SDS011;3314;50.890;4.722;2023-02-15T04:25:33;41.9;;;16.6;;
6561;SDS011;3314;50.890;4.722;2023-02-15T04:25:57;42.7;;;17.7;;
6561;SDS011;3314;50.890;4.722;2023-02-15T04:27:56;46.7;;;17.9;;
6561;SDS011;3314;50.890;4.722;2023-02-15T04:29:56;38.5;;;16.0;;
6561;SDS011;3314;50.890;4.722;2023-02-15T04:31:56;41.2;;;17.4;;
6561;SDS011;3314;50.890;4.722;2023-02-15T04:33:56;41.7;;;16.9;;
6561;SDS011;3314;50.890;4.722;2023-02-15T04:35:56;37.9;;;16.2;;
6561;SDS011;3314;50.890;4.722;2023-02-15T04:37:56;39.1;;;16.4;;
6561;SDS011;3314;50.890;4.722;2023-02-15T04:39:58;36.9;;;16.2;;
6561;SDS011;3314;50.890;4.722;2023-02-15T04:41:48;41.0;;;17.4;;
6561;SDS011;3314;50.890;4.722;2023-02-15T04:43:48;43.2;;;18.0;;
6561;SDS011;3314;50.890;4.722;2023-02-15T04:45:48;36.7;;;16.3;;
6561;SDS011;3314;50.890;4.722;2023-02-15T04:47:48;42.1;;;16.3;;
6561;SDS011;3314;50.890;4.722;2023-02-15T04:49:47;42.0;;;17.1;;
6561;SDS011;3314;50.890;4.722;2023-02-15T04:51:47;42.5;;;18.3;;
6561;SDS011;3314;50.890;4.722;2023-02-15T04:53:47;42.9;;;17.2;;
6561;SDS011;3314;50.890;4.722;2023-02-15T04:55:46;39.8;;;17.1;;
6561;SDS011;3314;50.890;4.722;2023-02-15T04:57:46;41.6;;;17.1;;
6561;SDS011;3314;50.890;4.722;2023-02-15T04:59:46;43.7;;;17.1;;
6561;SDS011;3314;50.890;4.722;2023-02-15T05:01:45;43.6;;;17.1;;
6561;SDS011;3314;50.890;4.722;2023-02-15T05:03:45;40.7;;;16.2;;
6561;SDS011;3314;50.890;4.722;2023-02-15T05:05:45;41.6;;;17.1;;
6561;SDS011;3314;50.890;4.722;2023-02-15T05:07:44;42.8;;;18.1;;
6561;SDS011;3314;50.890;4.722;2023-02-15T05:09:44;45.6;;;18.7;;
6561;SDS011;3314;50.890;4.722;2023-02-15T05:11:43;43.7;;;17.9;;
6561;SDS011;3314;50.890;4.722;2023-02-15T05:13:43;44.0;;;16.3;;
6561;SDS011;3314;50.890;4.722;2023-02-15T05:15:46;41.5;;;16.9;;
6561;SDS011;3314;50.890;4.722;2023-02-15T05:17:46;47.6;;;18.0;;
6561;SDS011;3314;50.890;4.722;2023-02-15T05:19:45;38.2;;;17.0;;
6561;SDS011;3314;50.890;4.722;2023-02-15T05:21:45;44.1;;;17.2;;
6561;SDS011;3314;50.890;4.722;2023-02-15T05:23:45;41.0;;;17.6;;
6561;SDS011;3314;50.890;4.722;2023-02-15T05:27:51;38.1;;;17.0;;
6561;SDS011;3314;50.890;4.722;2023-02-15T05:28:20;44.0;;;18.0;;
6561;SDS011;3314;50.890;4.722;2023-02-15T05:29:44;42.9;;;17.0;;
6561;SDS011;3314;50.890;4.722;2023-02-15T05:31:47;41.9;;;18.5;;
6561;SDS011;3314;50.890;4.722;2023-02-15T05:33:36;39.2;;;16.5;;
6561;SDS011;3314;50.890;4.722;2023-02-15T05:35:35;41.6;;;18.4;;
6561;SDS011;3314;50.890;4.722;2023-02-15T05:37:35;46.4;;;18.7;;
6561;SDS011;3314;50.890;4.722;2023-02-15T05:39:35;42.4;;;17.6;;
6561;SDS011;3314;50.890;4.722;2023-02-15T05:41:35;40.8;;;16.6;;
6561;SDS011;3314;50.890;4.722;2023-02-15T05:43:35;43.5;;;17.3;;
6561;SDS011;3314;50.890;4.722;2023-02-15T05:45:35;41.5;;;17.2;;
6561;SDS011;3314;50.890;4.722;2023-02-15T05:47:34;44.9;;;17.1;;
6561;SDS011;3314;50.890;4.722;2023-02-15T05:49:34;42.1;;;18.0;;
6561;SDS011;3314;50.890;4.722;2023-02-15T05:51:34;44.8;;;17.6;;
6561;SDS011;3314;50.890;4.722;2023-02-15T05:53:34;42.8;;;17.2;;
6561;SDS011;3314;50.890;4.722;2023-02-15T05:55:34;40.5;;;18.0;;
6561;SDS011;3314;50.890;4.722;2023-02-15T05:57:36;41.6;;;17.6;;
6561;SDS011;3314;50.890;4.722;2023-02-15T05:59:35;40.7;;;16.8;;
6561;SDS011;3314;50.890;4.722;2023-02-15T06:01:35;37.9;;;16.2;;
6561;SDS011;3314;50.890;4.722;2023-02-15T06:03:35;38.9;;;16.4;;
6561;SDS011;3314;50.890;4.722;2023-02-15T06:05:35;38.1;;;16.4;;
6561;SDS011;3314;50.890;4.722;2023-02-15T06:07:34;37.4;;;16.3;;
6561;SDS011;3314;50.890;4.722;2023-02-15T06:09:34;37.8;;;15.4;;
6561;SDS011;3314;50.890;4.722;2023-02-15T06:11:34;39.6;;;17.2;;
6561;SDS011;3314;50.890;4.722;2023-02-15T06:13:33;42.0;;;16.8;;
6561;SDS011;3314;50.890;4.722;2023-02-15T06:15:34;46.5;;;17.3;;
6561;SDS011;3314;50.890;4.722;2023-02-15T06:17:33;40.1;;;17.4;;
6561;SDS011;3314;50.890;4.722;2023-02-15T06:19:33;43.6;;;16.6;;
6561;SDS011;3314;50.890;4.722;2023-02-15T06:21:33;37.9;;;16.3;;
6561;SDS011;3314;50.890;4.722;2023-02-15T06:23:32;39.8;;;16.5;;
6561;SDS011;3314;50.890;4.722;2023-02-15T06:25:32;45.7;;;16.9;;
6561;SDS011;3314;50.890;4.722;2023-02-15T06:27:32;35.9;;;16.2;;
6561;SDS011;3314;50.890;4.722;2023-02-15T06:29:31;42.3;;;15.2;;
6561;SDS011;3314;50.890;4.722;2023-02-15T06:31:31;35.9;;;14.5;;
6561;SDS011;3314;50.890;4.722;2023-02-15T06:33:33;41.0;;;16.0;;
6561;SDS011;3314;50.890;4.722;2023-02-15T06:35:22;44.3;;;15.6;;
6561;SDS011;3314;50.890;4.722;2023-02-15T06:37:21;37.4;;;14.8;;
6561;SDS011;3314;50.890;4.722;2023-02-15T06:39:21;45.3;;;16.7;;
6561;SDS011;3314;50.890;4.722;2023-02-15T06:41:21;36.0;;;16.3;;
6561;SDS011;3314;50.890;4.722;2023-02-15T06:43:21;38.2;;;16.2;;
6561;SDS011;3314;50.890;4.722;2023-02-15T06:45:20;34.4;;;15.6;;
6561;SDS011;3314;50.890;4.722;2023-02-15T06:47:20;38.8;;;15.0;;
6561;SDS011;3314;50.890;4.722;2023-02-15T06:49:20;37.1;;;15.0;;
6561;SDS011;3314;50.890;4.722;2023-02-15T06:51:19;38.8;;;16.1;;
6561;SDS011;3314;50.890;4.722;2023-02-15T06:53:19;38.6;;;15.2;;
6561;SDS011;3314;50.890;4.722;2023-02-15T06:55:18;33.5;;;13.9;;
6561;SDS011;3314;50.890;4.722;2023-02-15T06:57:18;42.3;;;15.8;;
6561;SDS011;3314;50.890;4.722;2023-02-15T06:59:18;32.7;;;14.8;;
6561;SDS011;3314;50.890;4.722;2023-02-15T07:01:17;37.0;;;15.0;;
6561;SDS011;3314;50.890;4.722;2023-02-15T07:03:17;35.3;;;14.0;;
6561;SDS011;3314;50.890;4.722;2023-02-15T07:05:17;40.5;;;15.2;;
6561;SDS011;3314;50.890;4.722;2023-02-15T07:07:16;38.9;;;15.2;;
6561;SDS011;3314;50.890;4.722;2023-02-15T07:09:16;37.1;;;15.6;;
6561;SDS011;3314;50.890;4.722;2023-02-15T07:12:46;40.1;;;15.5;;
6561;SDS011;3314;50.890;4.722;2023-02-15T07:13:22;42.5;;;15.8;;
6561;SDS011;3314;50.890;4.722;2023-02-15T07:15:21;38.1;;;16.1;;
6561;SDS011;3314;50.890;4.722;2023-02-15T07:17:11;36.5;;;16.1;;
6561;SDS011;3314;50.890;4.722;2023-02-15T07:19:10;39.5;;;15.2;;
6561;SDS011;3314;50.890;4.722;2023-02-15T07:21:10;38.1;;;15.9;;
6561;SDS011;3314;50.890;4.722;2023-02-15T07:23:10;42.0;;;16.2;;
6561;SDS011;3314;50.890;4.722;2023-02-15T07:25:10;41.6;;;16.7;;
6561;SDS011;3314;50.890;4.722;2023-02-15T07:27:09;44.1;;;16.8;;
6561;SDS011;3314;50.890;4.722;2023-02-15T07:29:09;43.2;;;16.6;;
6561;SDS011;3314;50.890;4.722;2023-02-15T07:31:09;42.1;;;17.1;;
6561;SDS011;3314;50.890;4.722;2023-02-15T07:33:23;37.6;;;15.8;;
6561;SDS011;3314;50.890;4.722;2023-02-15T07:35:11;39.9;;;16.5;;
6561;SDS011;3314;50.890;4.722;2023-02-15T07:37:11;42.0;;;17.3;;
6561;SDS011;3314;50.890;4.722;2023-02-15T07:39:10;42.6;;;17.4;;
6561;SDS011;3314;50.890;4.722;2023-02-15T07:41:12;41.4;;;17.3;;
6561;SDS011;3314;50.890;4.722;2023-02-15T07:43:14;50.6;;;17.9;;
6561;SDS011;3314;50.890;4.722;2023-02-15T07:45:14;43.5;;;17.4;;
6561;SDS011;3314;50.890;4.722;2023-02-15T07:47:04;48.1;;;18.0;;
6561;SDS011;3314;50.890;4.722;2023-02-15T07:49:04;41.3;;;17.5;;
6561;SDS011;3314;50.890;4.722;2023-02-15T07:51:04;43.5;;;17.8;;
6561;SDS011;3314;50.890;4.722;2023-02-15T07:53:04;44.7;;;18.2;;
6561;SDS011;3314;50.890;4.722;2023-02-15T07:55:05;43.9;;;17.7;;
6561;SDS011;3314;50.890;4.722;2023-02-15T07:57:05;41.5;;;16.5;;
6561;SDS011;3314;50.890;4.722;2023-02-15T07:59:05;41.2;;;17.5;;
6561;SDS011;3314;50.890;4.722;2023-02-15T08:01:05;41.8;;;16.1;;
6561;SDS011;3314;50.890;4.722;2023-02-15T08:03:21;48.2;;;18.2;;
6561;SDS011;3314;50.890;4.722;2023-02-15T08:04:59;44.8;;;16.1;;
6561;SDS011;3314;50.890;4.722;2023-02-15T08:06:59;41.6;;;17.4;;
6561;SDS011;3314;50.890;4.722;2023-02-15T08:08:59;49.7;;;16.7;;
6561;SDS011;3314;50.890;4.722;2023-02-15T08:11:33;40.9;;;17.3;;
6561;SDS011;3314;50.890;4.722;2023-02-15T08:12:57;45.7;;;17.8;;
6561;SDS011;3314;50.890;4.722;2023-02-15T08:14:57;42.6;;;18.4;;
6561;SDS011;3314;50.890;4.722;2023-02-15T08:16:58;43.8;;;17.7;;
6561;SDS011;3314;50.890;4.722;2023-02-15T08:18:58;48.2;;;18.1;;
6561;SDS011;3314;50.890;4.722;2023-02-15T08:21:05;47.8;;;17.9;;
6561;SDS011;3314;50.890;4.722;2023-02-15T08:23:04;44.6;;;18.4;;
6561;SDS011;3314;50.890;4.722;2023-02-15T08:25:04;44.6;;;17.1;;
6561;SDS011;3314;50.890;4.722;2023-02-15T08:27:04;50.0;;;18.2;;
6561;SDS011;3314;50.890;4.722;2023-02-15T08:28:54;46.0;;;17.5;;
6561;SDS011;3314;50.890;4.722;2023-02-15T08:30:54;46.1;;;18.2;;
6561;SDS011;3314;50.890;4.722;2023-02-15T08:32:54;48.0;;;17.9;;
6561;SDS011;3314;50.890;4.722;2023-02-15T08:34:53;39.6;;;16.8;;
6561;SDS011;3314;50.890;4.722;2023-02-15T08:36:53;43.1;;;18.1;;
6561;SDS011;3314;50.890;4.722;2023-02-15T08:38:53;45.1;;;17.3;;
6561;SDS011;3314;50.890;4.722;2023-02-15T08:40:52;39.4;;;16.7;;
6561;SDS011;3314;50.890;4.722;2023-02-15T08:42:52;45.0;;;17.3;;
6561;SDS011;3314;50.890;4.722;2023-02-15T08:44:52;40.2;;;18.1;;
6561;SDS011;3314;50.890;4.722;2023-02-15T08:46:51;45.5;;;17.6;;
6561;SDS011;3314;50.890;4.722;2023-02-15T08:48:51;42.3;;;16.1;;
6561;SDS011;3314;50.890;4.722;2023-02-15T08:50:51;41.0;;;16.4;;
6561;SDS011;3314;50.890;4.722;2023-02-15T08:52:50;45.5;;;17.1;;
6561;SDS011;3314;50.890;4.722;2023-02-15T08:54:50;41.1;;;16.4;;
6561;SDS011;3314;50.890;4.722;2023-02-15T08:56:50;40.0;;;16.7;;
6561;SDS011;3314;50.890;4.722;2023-02-15T08:58:50;47.7;;;16.5;;
6561;SDS011;3314;50.890;4.722;2023-02-15T09:00:49;39.0;;;16.8;;
6561;SDS011;3314;50.890;4.722;2023-02-15T09:02:49;41.0;;;16.9;;
6561;SDS011;3314;50.890;4.722;2023-02-15T09:04:49;40.9;;;16.7;;
6561;SDS011;3314;50.890;4.722;2023-02-15T09:06:49;42.0;;;16.6;;
6561;SDS011;3314;50.890;4.722;2023-02-15T09:08:49;38.4;;;15.7;;
6561;SDS011;3314;50.890;4.722;2023-02-15T09:10:49;39.0;;;15.8;;
6561;SDS011;3314;50.890;4.722;2023-02-15T09:12:50;41.7;;;17.3;;
6561;SDS011;3314;50.890;4.722;2023-02-15T09:14:50;43.6;;;16.7;;
6561;SDS011;3314;50.890;4.722;2023-02-15T09:16:51;40.9;;;17.5;;
6561;SDS011;3314;50.890;4.722;2023-02-15T09:18:51;42.1;;;17.3;;
6561;SDS011;3314;50.890;4.722;2023-02-15T09:20:51;41.4;;;16.1;;
6561;SDS011;3314;50.890;4.722;2023-02-15T09:22:51;36.0;;;16.1;;
6561;SDS011;3314;50.890;4.722;2023-02-15T09:24:41;38.5;;;16.0;;
6561;SDS011;3314;50.890;4.722;2023-02-15T09:26:42;44.9;;;16.1;;
6561;SDS011;3314;50.890;4.722;2023-02-15T09:28:42;40.1;;;16.0;;
6561;SDS011;3314;50.890;4.722;2023-02-15T09:30:42;45.6;;;17.8;;
6561;SDS011;3314;50.890;4.722;2023-02-15T09:32:41;53.2;;;15.8;;
6561;SDS011;3314;50.890;4.722;2023-02-15T09:34:41;41.5;;;15.1;;
6561;SDS011;3314;50.890;4.722;2023-02-15T09:36:41;40.3;;;16.0;;
6561;SDS011;3314;50.890;4.722;2023-02-15T09:38:41;42.3;;;15.4;;
6561;SDS011;3314;50.890;4.722;2023-02-15T09:40:42;39.0;;;16.5;;
6561;SDS011;3314;50.890;4.722;2023-02-15T09:42:50;41.8;;;18.1;;
6561;SDS011;3314;50.890;4.722;2023-02-15T09:44:46;38.2;;;17.0;;
6561;SDS011;3314;50.890;4.722;2023-02-15T09:46:42;47.9;;;18.3;;
6561;SDS011;3314;50.890;4.722;2023-02-15T09:48:45;40.1;;;17.2;;
6561;SDS011;3314;50.890;4.722;2023-02-15T09:50:37;40.9;;;16.2;;
6561;SDS011;3314;50.890;4.722;2023-02-15T09:52:44;41.2;;;18.0;;
6561;SDS011;3314;50.890;4.722;2023-02-15T09:54:39;42.0;;;17.1;;
6561;SDS011;3314;50.890;4.722;2023-02-15T09:56:43;42.0;;;17.7;;
6561;SDS011;3314;50.890;4.722;2023-02-15T09:58:36;40.3;;;16.7;;
6561;SDS011;3314;50.890;4.722;2023-02-15T10:00:41;47.8;;;19.2;;
6561;SDS011;3314;50.890;4.722;2023-02-15T10:02:37;43.2;;;17.7;;
6561;SDS011;3314;50.890;4.722;2023-02-15T10:04:49;41.5;;;17.2;;
6561;SDS011;3314;50.890;4.722;2023-02-15T10:06:43;39.5;;;17.3;;
6561;SDS011;3314;50.890;4.722;2023-02-15T10:08:40;41.1;;;16.6;;
6561;SDS011;3314;50.890;4.722;2023-02-15T10:10:32;44.2;;;17.5;;
6561;SDS011;3314;50.890;4.722;2023-02-15T10:12:39;48.9;;;18.2;;
6561;SDS011;3314;50.890;4.722;2023-02-15T10:14:42;40.3;;;17.8;;
6561;SDS011;3314;50.890;4.722;2023-02-15T10:16:34;39.2;;;16.8;;
6561;SDS011;3314;50.890;4.722;2023-02-15T10:18:39;50.9;;;17.7;;
6561;SDS011;3314;50.890;4.722;2023-02-15T10:20:33;39.7;;;18.0;;
6561;SDS011;3314;50.890;4.722;2023-02-15T10:22:37;43.8;;;17.2;;
6561;SDS011;3314;50.890;4.722;2023-02-15T10:24:34;41.5;;;17.3;;
6561;SDS011;3314;50.890;4.722;2023-02-15T10:26:37;40.8;;;17.0;;
6561;SDS011;3314;50.890;4.722;2023-02-15T10:28:30;47.0;;;17.5;;
6561;SDS011;3314;50.890;4.722;2023-02-15T10:30:35;43.6;;;18.1;;
6561;SDS011;3314;50.890;4.722;2023-02-15T10:32:27;40.5;;;16.4;;
6561;SDS011;3314;50.890;4.722;2023-02-15T10:34:29;37.2;;;16.8;;
6561;SDS011;3314;50.890;4.722;2023-02-15T10:36:35;37.5;;;16.2;;
6561;SDS011;3314;50.890;4.722;2023-02-15T10:38:27;38.5;;;15.6;;
6561;SDS011;3314;50.890;4.722;2023-02-15T10:40:32;37.6;;;16.4;;
6561;SDS011;3314;50.890;4.722;2023-02-15T10:42:37;35.9;;;15.7;;
6561;SDS011;3314;50.890;4.722;2023-02-15T10:44:30;39.9;;;16.6;;
6561;SDS011;3314;50.890;4.722;2023-02-15T10:46:30;34.7;;;14.0;;
6561;SDS011;3314;50.890;4.722;2023-02-15T10:48:36;32.1;;;15.0;;
6561;SDS011;3314;50.890;4.722;2023-02-15T10:50:30;37.6;;;14.3;;
6561;SDS011;3314;50.890;4.722;2023-02-15T10:52:27;36.6;;;14.5;;
6561;SDS011;3314;50.890;4.722;2023-02-15T10:54:28;34.3;;;15.2;;
6561;SDS011;3314;50.890;4.722;2023-02-15T10:56:32;35.8;;;14.1;;
6561;SDS011;3314;50.890;4.722;2023-02-15T10:58:26;37.9;;;14.5;;
6561;SDS011;3314;50.890;4.722;2023-02-15T11:00:30;39.3;;;14.8;;
6561;SDS011;3314;50.890;4.722;2023-02-15T11:02:23;33.8;;;13.1;;
6561;SDS011;3314;50.890;4.722;2023-02-15T11:04:32;32.5;;;13.2;;
6561;SDS011;3314;50.890;4.722;2023-02-15T11:06:22;39.7;;;14.8;;
6561;SDS011;3314;50.890;4.722;2023-02-15T11:08:25;34.6;;;14.6;;
6561;SDS011;3314;50.890;4.722;2023-02-15T11:10:27;37.0;;;14.8;;
6561;SDS011;3314;50.890;4.722;2023-02-15T11:12:28;34.9;;;14.2;;
6561;SDS011;3314;50.890;4.722;2023-02-15T11:14:31;35.4;;;13.4;;
6561;SDS011;3314;50.890;4.722;2023-02-15T11:16:23;36.4;;;14.5;;
6561;SDS011;3314;50.890;4.722;2023-02-15T11:18:25;31.6;;;13.3;;
6561;SDS011;3314;50.890;4.722;2023-02-15T11:20:28;34.0;;;14.1;;
6561;SDS011;3314;50.890;4.722;2023-02-15T11:22:17;35.4;;;13.6;;
6561;SDS011;3314;50.890;4.722;2023-02-15T11:24:19;31.0;;;12.7;;
6561;SDS011;3314;50.890;4.722;2023-02-15T11:26:20;32.1;;;14.2;;
6561;SDS011;3314;50.890;4.722;2023-02-15T11:28:22;36.6;;;14.2;;
6561;SDS011;3314;50.890;4.722;2023-02-15T11:30:23;37.0;;;14.0;;
6561;SDS011;3314;50.890;4.722;2023-02-15T11:32:25;34.2;;;12.9;;
6561;SDS011;3314;50.890;4.722;2023-02-15T11:34:17;37.0;;;13.0;;
6561;SDS011;3314;50.890;4.722;2023-02-15T11:36:19;39.0;;;15.1;;
6561;SDS011;3314;50.890;4.722;2023-02-15T11:38:20;34.2;;;14.3;;
6561;SDS011;3314;50.890;4.722;2023-02-15T11:40:22;36.0;;;13.1;;
6561;SDS011;3314;50.890;4.722;2023-02-15T11:42:23;34.8;;;13.8;;
6561;SDS011;3314;50.890;4.722;2023-02-15T11:44:14;36.5;;;14.1;;
6561;SDS011;3314;50.890;4.722;2023-02-15T11:46:15;37.6;;;13.7;;
6561;SDS011;3314;50.890;4.722;2023-02-15T11:48:15;34.0;;;13.4;;
6561;SDS011;3314;50.890;4.722;2023-02-15T11:50:15;37.7;;;13.7;;
6561;SDS011;3314;50.890;4.722;2023-02-15T11:52:16;33.6;;;14.4;;
6561;SDS011;3314;50.890;4.722;2023-02-15T11:54:17;35.6;;;12.9;;
6561;SDS011;3314;50.890;4.722;2023-02-15T11:56:21;33.5;;;12.0;;
6561;SDS011;3314;50.890;4.722;2023-02-15T11:58:12;39.3;;;13.9;;
6561;SDS011;3314;50.890;4.722;2023-02-15T12:00:16;34.0;;;13.4;;
6561;SDS011;3314;50.890;4.722;2023-02-15T12:02:20;35.5;;;14.0;;
6561;SDS011;3314;50.890;4.722;2023-02-15T12:04:10;35.3;;;13.9;;
6561;SDS011;3314;50.890;4.722;2023-02-15T12:06:16;36.7;;;14.1;;
6561;SDS011;3314;50.890;4.722;2023-02-15T12:08:17;37.6;;;14.1;;
6561;SDS011;3314;50.890;4.722;2023-02-15T12:10:19;36.5;;;13.0;;
6561;SDS011;3314;50.890;4.722;2023-02-15T12:12:24;42.0;;;14.1;;
6561;SDS011;3314;50.890;4.722;2023-02-15T12:14:12;36.8;;;14.2;;
6561;SDS011;3314;50.890;4.722;2023-02-15T12:16:12;34.5;;;13.7;;
6561;SDS011;3314;50.890;4.722;2023-02-15T12:18:17;40.1;;;13.9;;
6561;SDS011;3314;50.890;4.722;2023-02-15T12:20:20;35.9;;;13.5;;
6561;SDS011;3314;50.890;4.722;2023-02-15T12:22:17;38.9;;;14.4;;